Relevés horaires St-Hubert (Belgique)


Relevés horaires à St-Hubert - Dimanche 27 Févr. 2022
Heure UTC1 Température [°C] Vent [km/h] Hum. [%] Pres.4 [hPa] Visi. [Km] Nébu. [octa] Préc.5 [mm] Cond.
2m. Res. Ros. Dir.2 Vit. Moy. Raf.3
23:00 0.6 -3.3 -4.8 ESE 13.0 14.8 22.2 67 1031.2(0.1/3h) 45 0/8 -- --
22:00 0.4 -3.5 -4.5 ESE 13.0 13.0 20.4 70 1031(0.0/3h) 45 0/8 -- --
21:00 0.2 -2.9 -5.1 E 9.3 11.1 16.7 67 1031.5(0.6/3h) 45 0/8 -- --
20:00 0.7 -2.3 -5.3 E 9.3 11.1 16.7 64 1031.3(0.9/3h) 45 0/8 -- --
19:00 1.2 -1.7 -5.3 E 9.3 9.3 14.8 62 1030.8(0.6/3h) 45 0/8 -- --
18:00 2.0 -0.2 -- E 7.4 16.7 24.1 -- 1000(0.5/3h) 45 -- 0/12h
--
17:00 3.6 1.7 -6.6 E 7.4 9.3 13.0 47 1029.6(-0.2/3h) 45 0/8 -- --
16:00 5.2 3.5 -5.3 ESE 7.4 11.1 16.7 47 1029.1(-0.4/3h) 40 0/8 -- --
15:00 5.7 4.1 -5.5 ESE 7.4 16.7 24.1 44 1028.9(-0.4/3h) 40 0/8 -- --
14:00 5.5 3.4 -6.4 SE 9.3 11.1 20.4 42 1029.3(0.2/3h) 35 0/8 -- --
13:00 5.4 2.9 -7.0 SE 11.1 16.7 24.1 40 1029.5(-0.1/3h) 30 0/8 -- --
12:00 4.8 2.2 -5.9 SE 11.1 14.8 24.1 46 1029.6(-0.2/3h) 35 0/8 0/6h
--
11:00 3.4 0.1 -5.8 SE 13.0 13.0 24.1 51 1030(0.2/3h) 40 0/8 -- --
10:00 1.9 -1.3 -6.0 ESE 11.1 14.8 24.1 56 1030.6(0.5/3h) 35 0/8 -- --
09:00 1.1 -2.3 -6.2 ESE 11.1 13.0 22.2 58 1030.8(0.7/3h) 35 0/8 -- --
08:00 -0.4 -4.1 -6.3 ESE 11.1 13.0 20.4 64 1030.8(0.3/3h) 40 0/8 -- --
07:00 -1.4 -5.7 -6.2 ESE 13.0 13.0 18.5 70 1030.8(-0.4/3h) 45 0/8 -- --
06:00 -1.4 -5.3 -5.4 ESE 11.1 13.0 20.4 74 1030.7(-0.9/3h) 45 0/8 0/12h
--
05:00 -1.4 -5.3 -6.2 E 11.1 13.0 18.5 70 1030.7(-1.1/3h) 45 0/8 -- --
04:00 -1.5 -4.9 -5.4 E 9.3 9.3 14.8 75 1031.3(-0.8/3h) 45 0/8 -- --
03:00 -1.2 -4.6 -5.4 E 9.3 13.0 20.4 73 1031.6(-0.7/3h) 45 0/8 -- --
02:00 -1.3 -4.1 -5.4 ESE 7.4 11.1 16.7 74 1031.9(-0.9/3h) 45 0/8 -- --
01:00 -1.2 -5 -4.8 E 11.1 13.0 20.4 76 1032.1(-0.6/3h) 35 0/8 -- --
00:00 -1.3 -5.2 -4.7 E 11.1 11.1 16.7 78 1032.4(-0.5/3h) 30 0/8 0/6h
0/24h
--

1 Coordinated Universal Time. Actuellement il est 03:00 locale et 02:00 UTC.

2 Le vent souffle depuis la direction indiquée vers la direction oposée.

3 Les rafales max. sont disponible 40 min après l'heure du relevé.

4 Pour les stations d'altitude (plus de 600m) le géopotentiel du niveau le plus proche de la pression obligatoire est indiqué.

5 Les stations disposant d'un diffuseur peuvent indiquer "trace". Cela signifie que des précipitations ont touchés le sol mais que la quantité est inférieure à 0.1 mm.

Récapitulatif de la journée
Température [°C] Vent [km/h] Ensoleillement4 [h] Precipitations totale5 [mm] Pression [Hpa]
Min1 Max.2 Moy.3 Max. Min Max.
-1.7 6.1 12.8 24.1 0 h 0 min 0 1000.0 1032.4

1 Température minimale relevée entre 18:00 UTC la veille et 18:00 UTC le jour donné.

2 Température maximale relevée entre 06:00 UTC le jour donné et 06:00 UTC le lendemain.

3 Vent moyen de la journée basé sur les relevés horaires.

4 Ensoleillement en heures relevé entre 06:00 UTC la veille et 06:00 UTC le jour donné.

5 Précipitations totales tombées entre 06:00 UTC la jour donné et 06:00 UTC le lendemain.

Graphiques horaires